Time;durP1;ratioP1;P1;durP2;ratioP2;P2;SDS_P1;SDS_P2;PMS_P1;PMS_P2;Temp;Humidity;BMP_temperature;BMP_pressure;BME280_temperature;BME280_humidity;BME280_pressure;Samples;Min_cycle;Max_cycle;Signal;HPM_P1;HPM_P2
2022/05/05 00:00:40;;;;;;;11.37;6.30;;;6.10;99.90;;;;;;8391093;28;20190;-80
2022/05/05 00:04:41;;;;;;;13.47;7.87;;;6.10;51.00;;;;;;8394684;28;20220;-80
2022/05/05 00:08:41;;;;;;;11.13;7.67;;;6.10;83.30;;;;;;8402939;28;20176;-79
2022/05/05 00:17:08;;;;;;;9.93;6.80;;;6.10;99.90;;;;;;8416366;28;20309;-80
2022/05/05 00:21:08;;;;;;;10.10;7.13;;;6.10;1.00;;;;;;8416747;28;20213;-80
2022/05/05 00:25:09;;;;;;;9.73;6.40;;;6.00;1.00;;;;;;8395150;28;20262;-80
2022/05/05 00:29:10;;;;;;;8.03;5.80;;;5.80;99.90;;;;;;8400470;28;20184;-80
2022/05/05 00:33:11;;;;;;;9.00;6.30;;;5.70;99.90;;;;;;8401865;28;20180;-80
2022/05/05 00:37:12;;;;;;;8.07;5.63;;;5.60;99.90;;;;;;8404486;28;20211;-81
2022/05/05 00:41:13;;;;;;;9.20;6.03;;;5.60;1.00;;;;;;8400553;28;20200;-81
2022/05/05 00:45:14;;;;;;;7.13;4.90;;;5.50;99.90;;;;;;8398965;28;20192;-81
2022/05/05 00:49:15;;;;;;;8.90;5.40;;;5.50;29.70;;;;;;8398292;28;20196;-80
2022/05/05 00:53:16;;;;;;;7.63;5.33;;;5.40;72.70;;;;;;8403019;28;20205;-80
2022/05/05 00:57:17;;;;;;;7.57;5.37;;;5.30;99.90;;;;;;8400649;28;20185;-82
2022/05/05 01:01:21;;;;;;;7.13;5.37;;;5.20;99.90;;;;;;8404843;28;20275;-80
2022/05/05 01:05:21;;;;;;;6.37;4.80;;;5.20;1.00;;;;;;8396621;28;20234;-80
2022/05/05 01:09:22;;;;;;;8.10;5.70;;;5.20;99.50;;;;;;8392676;28;20188;-80
2022/05/05 01:13:25;;;;;;;8.43;5.67;;;5.20;99.90;;;;;;8398787;28;20210;-80
2022/05/05 01:17:29;;;;;;;7.47;5.80;;;5.20;99.90;;;;;;8393195;28;20290;-80
2022/05/05 01:21:30;;;;;;;6.90;5.10;;;5.10;99.90;;;;;;8390913;28;20590;-80
2022/05/05 01:29:51;;;;;;;8.33;5.53;;;5.00;99.90;;;;;;8424051;28;20196;-80
2022/05/05 01:33:52;;;;;;;6.67;5.07;;;5.00;99.90;;;;;;8398428;28;20201;-80
2022/05/05 01:37:53;;;;;;;6.50;5.33;;;4.90;99.90;;;;;;8406678;28;20192;-80
2022/05/05 01:41:54;;;;;;;7.47;5.57;;;4.90;1.00;;;;;;8407589;28;20311;-81
2022/05/05 01:45:55;;;;;;;8.00;5.97;;;4.90;1.00;;;;;;8400088;28;20214;-81
2022/05/05 01:50:00;;;;;;;8.07;5.70;;;4.80;1.00;;;;;;8406879;28;20185;-80
2022/05/05 01:54:00;;;;;;;7.40;5.67;;;4.80;1.00;;;;;;8402970;28;20275;-80
2022/05/05 01:58:03;;;;;;;7.60;5.47;;;4.80;1.00;;;;;;8406092;28;20192;-80
2022/05/05 02:02:04;;;;;;;8.20;5.67;;;4.70;39.90;;;;;;8402961;28;20222;-80
2022/05/05 02:06:07;;;;;;;7.50;5.77;;;4.70;99.90;;;;;;8405650;28;20202;-80
2022/05/05 02:10:09;;;;;;;7.47;5.53;;;4.70;99.90;;;;;;8405737;28;20250;-80
2022/05/05 02:14:10;;;;;;;7.83;5.87;;;4.70;99.90;;;;;;8411252;28;20189;-80
2022/05/05 02:18:12;;;;;;;9.07;6.10;;;4.70;99.90;;;;;;8404334;28;20185;-80
2022/05/05 02:22:14;;;;;;;8.50;5.93;;;4.80;99.90;;;;;;8410101;28;20211;-80
2022/05/05 02:26:15;;;;;;;7.17;5.80;;;4.90;99.90;;;;;;8408944;28;20197;-80
2022/05/05 02:30:20;;;;;;;7.93;6.30;;;4.90;99.90;;;;;;8402660;28;20227;-81
2022/05/05 02:34:21;;;;;;;9.17;6.27;;;5.00;99.90;;;;;;8415859;28;20331;-80
2022/05/05 02:42:41;;;;;;;7.70;6.37;;;4.90;99.90;;;;;;8411600;28;20334;-80
2022/05/05 02:46:42;;;;;;;9.57;6.20;;;4.90;99.90;;;;;;8397279;28;20175;-81
2022/05/05 02:50:42;;;;;;;10.23;6.50;;;4.90;99.90;;;;;;8400731;28;20194;-80
2022/05/05 02:54:53;;;;;;;7.07;5.60;;;4.80;99.90;;;;;;8414298;28;20176;-80
2022/05/05 02:58:54;;;;;;;9.63;7.07;;;4.60;99.90;;;;;;8401993;28;20185;-81
2022/05/05 03:02:56;;;;;;;8.57;6.70;;;4.50;99.90;;;;;;8415211;28;20201;-80
2022/05/05 03:06:56;;;;;;;9.33;7.37;;;4.60;99.90;;;;;;8397166;28;20195;-80
2022/05/05 03:10:57;;;;;;;9.23;6.20;;;4.60;99.90;;;;;;8396425;28;20592;-80
2022/05/05 03:14:58;;;;;;;9.53;6.63;;;4.60;99.90;;;;;;8403324;28;20209;-80
2022/05/05 03:18:59;;;;;;;7.73;5.97;;;4.50;99.90;;;;;;8399040;28;20234;-80
2022/05/05 03:23:00;;;;;;;6.80;5.27;;;4.40;99.90;;;;;;8395348;28;20358;-80
2022/05/05 03:27:01;;;;;;;7.30;5.73;;;4.40;99.90;;;;;;8400279;28;20278;-80
2022/05/05 03:31:02;;;;;;;7.40;5.87;;;4.40;99.90;;;;;;8400970;28;20193;-80
2022/05/05 03:35:04;;;;;;;6.53;5.67;;;4.40;99.90;;;;;;8395259;28;20201;-81
2022/05/05 03:39:05;;;;;;;9.37;6.00;;;4.50;99.90;;;;;;8397504;28;20266;-80
2022/05/05 03:43:05;;;;;;;8.17;6.33;;;4.70;99.90;;;;;;8396407;28;20200;-80
2022/05/05 03:47:06;;;;;;;10.03;7.30;;;4.80;99.90;;;;;;8398375;28;20193;-81
2022/05/05 03:51:07;;;;;;;7.83;6.30;;;4.90;99.90;;;;;;8405893;28;20183;-81
2022/05/05 03:55:08;;;;;;;8.43;6.90;;;5.10;99.90;;;;;;8402332;28;20228;-80
2022/05/05 03:59:09;;;;;;;7.67;6.47;;;5.20;99.90;;;;;;8399281;28;20196;-80
2022/05/05 04:07:29;;;;;;;11.80;7.00;;;6.40;99.90;;;;;;8416339;28;20219;-80
2022/05/05 04:11:30;;;;;;;10.23;6.93;;;7.20;1.00;;;;;;8392536;28;20181;-80
2022/05/05 04:15:33;;;;;;;8.47;6.97;;;7.90;99.90;;;;;;8396572;28;20184;-81
2022/05/05 04:19:34;;;;;;;11.70;6.57;;;8.50;99.90;;;;;;8395296;28;20653;-81
2022/05/05 04:23:35;;;;;;;9.00;6.33;;;8.80;99.90;;;;;;8394359;28;20273;-81
2022/05/05 04:27:36;;;;;;;9.17;6.40;;;8.90;1.00;;;;;;8395589;28;20188;-82
2022/05/05 04:31:37;;;;;;;8.57;6.00;;;8.90;99.90;;;;;;8389767;28;20200;-80
2022/05/05 04:35:38;;;;;;;7.77;5.70;;;9.20;99.90;;;;;;8391128;28;20227;-79
2022/05/05 04:39:39;;;;;;;9.43;6.27;;;9.60;99.90;;;;;;8395970;28;20242;-79
2022/05/05 04:43:40;;;;;;;6.73;5.80;;;10.20;99.90;;;;;;8412617;28;20216;-78
2022/05/05 04:47:43;;;;;;;9.87;5.63;;;10.70;99.90;;;;;;8399867;28;20215;-79
2022/05/05 04:51:43;;;;;;;8.47;6.20;;;11.10;52.70;;;;;;8403404;28;20228;-80
2022/05/05 04:55:44;;;;;;;7.83;6.40;;;11.10;16.60;;;;;;8401489;28;20218;-80
2022/05/05 04:59:45;;;;;;;8.97;6.23;;;10.90;99.90;;;;;;8409781;28;20303;-79
2022/05/05 05:03:47;;;;;;;10.70;7.53;;;11.00;99.90;;;;;;8396327;28;20205;-79
2022/05/05 05:07:48;;;;;;;12.60;7.40;;;10.80;99.90;;;;;;8403324;28;20189;-80
2022/05/05 05:11:48;;;;;;;12.67;7.93;;;10.90;99.90;;;;;;8405217;28;20200;-80
2022/05/05 05:15:49;;;;;;;19.57;12.60;;;10.90;1.00;;;;;;8408225;28;20185;-80
2022/05/05 05:19:50;;;;;;;17.57;10.30;;;11.10;1.00;;;;;;8396926;28;20211;-80
2022/05/05 05:23:51;;;;;;;19.57;12.60;;;11.50;99.90;;;;;;8404087;28;20248;-80
2022/05/05 05:27:52;;;;;;;23.57;15.50;;;12.00;99.90;;;;;;8394848;28;20190;-80
2022/05/05 05:31:53;;;;;;;18.77;13.40;;;12.60;6.60;;;;;;8409427;28;20187;-80
2022/05/05 05:35:54;;;;;;;28.90;16.67;;;12.90;1.00;;;;;;8400511;28;20198;-80
2022/05/05 05:39:55;;;;;;;33.73;19.53;;;13.30;1.00;;;;;;8393459;28;20215;-79
2022/05/05 05:43:56;;;;;;;28.50;16.13;;;13.70;1.00;;;;;;8396545;28;20220;-80
2022/05/05 05:47:57;;;;;;;37.70;27.23;;;14.00;1.00;;;;;;8412665;28;20187;-81
2022/05/05 05:51:58;;;;;;;33.50;21.20;;;14.40;1.00;;;;;;8402552;28;20220;-80
2022/05/05 05:55:58;;;;;;;27.50;18.07;;;14.60;1.00;;;;;;8399687;28;20246;-80
2022/05/05 05:59:59;;;;;;;18.00;12.73;;;15.00;1.00;;;;;;8406662;28;20185;-80
2022/05/05 06:04:00;;;;;;;12.50;9.30;;;15.40;1.00;;;;;;8401637;28;20213;-80
2022/05/05 06:08:03;;;;;;;11.53;7.23;;;15.90;99.90;;;;;;8396933;28;20230;-80
2022/05/05 06:12:04;;;;;;;23.17;16.43;;;16.30;99.90;;;;;;8396951;28;20193;-80
2022/05/05 06:16:06;;;;;;;36.17;23.23;;;16.50;99.90;;;;;;8395993;28;20200;-80
2022/05/05 06:20:07;;;;;;;32.50;21.33;;;16.40;99.90;;;;;;8398112;28;20280;-80
2022/05/05 06:24:09;;;;;;;26.97;17.63;;;15.80;1.00;;;;;;8395779;28;20220;-80
2022/05/05 06:28:10;;;;;;;24.67;16.77;;;15.30;99.90;;;;;;8403922;28;20185;-81
2022/05/05 06:32:11;;;;;;;16.93;11.90;;;15.10;40.20;;;;;;8397058;28;20283;-80
2022/05/05 06:36:11;;;;;;;15.37;8.13;;;15.10;18.10;;;;;;8393292;28;20196;-81
2022/05/05 06:40:12;;;;;;;8.77;7.20;;;15.30;1.00;;;;;;8396519;28;20214;-82
2022/05/05 06:44:13;;;;;;;10.27;7.77;;;15.50;1.00;;;;;;8396517;28;20420;-81
2022/05/05 06:48:14;;;;;;;8.63;7.00;;;15.70;99.90;;;;;;8394360;28;20188;-81
2022/05/05 06:52:15;;;;;;;8.00;6.57;;;15.80;99.90;;;;;;8392477;28;20189;-81
2022/05/05 06:56:16;;;;;;;7.70;6.57;;;16.20;99.90;;;;;;8395164;28;20200;-82
2022/05/05 07:00:17;;;;;;;7.00;6.30;;;16.60;99.90;;;;;;8392669;28;20223;-81
2022/05/05 07:12:58;;;;;;;9.03;6.10;;;17.20;99.90;;;;;;8411659;28;20287;-79
2022/05/05 07:16:59;;;;;;;11.37;6.97;;;17.10;99.90;;;;;;8387421;28;20311;-79
2022/05/05 07:21:00;;;;;;;7.20;6.50;;;17.40;99.90;;;;;;8391534;28;20290;-81
2022/05/05 07:25:03;;;;;;;7.70;6.73;;;17.70;99.90;;;;;;8377037;28;20239;-81
2022/05/05 07:29:04;;;;;;;7.40;6.53;;;17.90;99.90;;;;;;8393897;28;20192;-81
2022/05/05 07:33:06;;;;;;;7.50;6.03;;;17.80;99.90;;;;;;8386870;28;20208;-82
2022/05/05 07:37:07;;;;;;;7.40;6.70;;;18.00;99.90;;;;;;8393111;28;20189;-80
2022/05/05 07:41:08;;;;;;;7.60;6.30;;;18.00;99.90;;;;;;8382762;28;20212;-79
2022/05/05 07:45:09;;;;;;;8.23;7.43;;;18.00;99.90;;;;;;8382032;28;20262;-80
2022/05/05 07:49:10;;;;;;;8.53;7.53;;;18.10;99.90;;;;;;8378586;28;20433;-78
2022/05/05 07:53:11;;;;;;;8.47;7.67;;;17.80;99.90;;;;;;8376197;28;20200;-80
2022/05/05 07:57:14;;;;;;;8.00;7.20;;;17.70;99.90;;;;;;8385653;28;20196;-81
2022/05/05 08:01:14;;;;;;;8.23;7.07;;;17.70;99.90;;;;;;8381921;28;20184;-80
2022/05/05 08:05:16;;;;;;;9.17;7.00;;;18.00;99.90;;;;;;8387697;28;20205;-81
2022/05/05 08:09:17;;;;;;;8.20;6.90;;;18.10;99.90;;;;;;8384086;28;20189;-80
2022/05/05 08:13:18;;;;;;;7.90;7.10;;;18.40;99.90;;;;;;8402110;28;20208;-79
2022/05/05 08:17:19;;;;;;;9.90;8.10;;;18.40;99.90;;;;;;8390422;28;20193;-80
2022/05/05 08:21:20;;;;;;;7.77;6.90;;;18.20;99.90;;;;;;8385574;28;20295;-80
2022/05/05 08:29:40;;;;;;;8.97;7.63;;;18.80;99.90;;;;;;8407979;28;20201;-81
2022/05/05 08:33:41;;;;;;;7.77;6.43;;;18.80;99.90;;;;;;8379919;28;20308;-80
2022/05/05 08:37:42;;;;;;;8.93;6.60;;;19.10;99.90;;;;;;8392241;28;20184;-78
2022/05/05 08:41:44;;;;;;;7.67;6.53;;;19.20;99.90;;;;;;8391959;28;20209;-79
2022/05/05 08:45:47;;;;;;;7.50;6.70;;;19.20;99.90;;;;;;8395241;28;20263;-78
2022/05/05 08:49:48;;;;;;;6.83;6.13;;;19.20;99.90;;;;;;8401065;28;20189;-79
2022/05/05 08:53:53;;;;;;;7.80;6.80;;;19.60;99.90;;;;;;8396671;28;20185;-78
2022/05/05 08:57:55;;;;;;;7.53;6.73;;;19.60;99.90;;;;;;8404068;28;20284;-79
2022/05/05 09:01:57;;;;;;;7.03;6.33;;;19.40;80.80;;;;;;8398839;28;20230;-81
2022/05/05 09:05:57;;;;;;;7.23;6.20;;;19.80;99.90;;;;;;8398930;28;20192;-79
2022/05/05 09:09:58;;;;;;;6.70;6.00;;;20.00;37.40;;;;;;8398720;28;20207;-80
2022/05/05 09:14:07;;;;;;;8.13;6.50;;;20.30;1.00;;;;;;8397661;28;20192;-79
2022/05/05 09:18:13;;;;;;;7.67;6.80;;;20.30;30.90;;;;;;8403408;28;20192;-79
2022/05/05 09:22:17;;;;;;;9.47;6.27;;;20.00;37.50;;;;;;8405592;28;20215;-79
2022/05/05 09:26:27;;;;;;;6.87;6.17;;;19.60;93.30;;;;;;8402950;28;20675;-78
2022/05/05 09:30:30;;;;;;;6.70;6.10;;;19.20;96.50;;;;;;8394857;28;20197;-79
2022/05/05 09:34:31;;;;;;;7.57;6.03;;;19.20;97.30;;;;;;8395898;28;20185;-79
2022/05/05 09:38:47;;;;;;;8.80;6.37;;;19.30;99.90;;;;;;8392688;28;20250;-79
2022/05/05 09:42:57;;;;;;;8.80;6.30;;;20.10;99.90;;;;;;8409822;28;20212;-80
2022/05/05 09:47:01;;;;;;;6.63;5.97;;;20.60;39.60;;;;;;8402649;28;20275;-80
2022/05/05 09:51:02;;;;;;;8.87;6.10;;;21.00;1.00;;;;;;8404761;28;20280;-80
2022/05/05 09:59:30;;;;;;;6.33;5.43;;;21.80;1.00;;;;;;8420941;28;20222;-81
2022/05/05 10:04:06;;;;;;;8.87;5.47;;;21.60;1.00;;;;;;8403663;28;20231;-79
2022/05/05 10:08:08;;;;;;;8.67;5.43;;;21.60;1.00;;;;;;8394182;28;20196;-79
2022/05/05 10:12:10;;;;;;;7.17;5.60;;;21.00;1.00;;;;;;8417594;28;20184;-77
2022/05/05 10:16:15;;;;;;;6.73;5.70;;;20.80;1.00;;;;;;8421084;28;20209;-77
2022/05/05 10:20:17;;;;;;;6.00;5.13;;;20.90;1.00;;;;;;8409434;28;20197;-77
2022/05/05 10:24:28;;;;;;;6.03;5.40;;;20.60;1.00;;;;;;8396864;28;20208;-77
2022/05/05 10:28:39;;;;;;;5.53;4.90;;;20.70;1.00;;;;;;8401452;28;20197;-78
2022/05/05 10:32:41;;;;;;;5.87;5.37;;;21.10;1.00;;;;;;8400767;28;20265;-78
2022/05/05 10:37:06;;;;;;;7.17;5.60;;;21.60;1.00;;;;;;8407106;28;20201;-79
2022/05/05 10:41:36;;;;;;;5.70;5.20;;;21.20;1.00;;;;;;8405218;28;20250;-78
2022/05/05 10:45:37;;;;;;;6.20;5.60;;;21.40;1.00;;;;;;8410043;28;20237;-79
2022/05/05 10:49:47;;;;;;;7.53;5.43;;;21.40;1.00;;;;;;8402480;28;20176;-78
2022/05/05 10:53:48;;;;;;;6.13;5.23;;;21.00;1.00;;;;;;8401928;28;20220;-79
2022/05/05 10:57:49;;;;;;;6.47;5.40;;;21.20;1.00;;;;;;8407287;28;20184;-78
2022/05/05 11:01:53;;;;;;;6.07;4.70;;;20.90;1.00;;;;;;8404327;28;20213;-78
2022/05/05 11:06:17;;;;;;;8.00;5.60;;;21.70;1.00;;;;;;8406341;28;20205;-78
2022/05/05 11:11:39;;;;;;;5.97;5.37;;;21.60;1.00;;;;;;8403850;28;20630;-78
2022/05/05 11:23:51;;;;;;;8.90;5.40;;;22.10;1.00;;;;;;8420142;28;20203;-78
2022/05/05 11:27:56;;;;;;;5.37;4.87;;;22.20;1.00;;;;;;8400238;28;20184;-78
2022/05/05 11:32:02;;;;;;;5.10;4.60;;;21.80;1.00;;;;;;8401368;28;20230;-79
2022/05/05 11:36:06;;;;;;;7.33;4.77;;;21.80;1.00;;;;;;8404578;28;20287;-78
2022/05/05 11:40:08;;;;;;;7.43;4.90;;;21.50;1.00;;;;;;8402651;28;20242;-79
2022/05/05 11:44:16;;;;;;;5.33;4.83;;;21.70;1.00;;;;;;8402708;28;20210;-78
2022/05/05 11:48:17;;;;;;;6.37;4.80;;;21.20;1.00;;;;;;8396980;28;20215;-80
2022/05/05 11:52:20;;;;;;;4.90;4.17;;;21.50;1.00;;;;;;8401102;28;20192;-80
2022/05/05 11:56:21;;;;;;;5.23;4.50;;;22.10;1.00;;;;;;8409439;28;20177;-77
2022/05/05 12:04:52;;;;;;;3.93;3.60;;;22.00;1.00;;;;;;8418755;28;20286;-78
2022/05/05 12:08:55;;;;;;;5.10;4.40;;;22.60;1.00;;;;;;8411044;28;20196;-78
2022/05/05 12:13:01;;;;;;;4.80;4.20;;;21.70;1.00;;;;;;8405670;28;20402;-76
2022/05/05 12:17:02;;;;;;;5.20;4.60;;;21.30;1.00;;;;;;8406053;28;20172;-76
2022/05/05 12:21:03;;;;;;;4.60;4.20;;;20.70;1.00;;;;;;8398189;28;20223;-76
2022/05/05 12:25:07;;;;;;;6.83;5.00;;;20.50;1.00;;;;;;8409436;28;20204;-79
2022/05/05 12:29:17;;;;;;;5.63;4.53;;;20.60;1.00;;;;;;8396922;28;20295;-78
2022/05/05 12:33:18;;;;;;;5.43;4.13;;;20.80;1.00;;;;;;8398987;28;20185;-78
2022/05/05 12:37:20;;;;;;;5.30;4.80;;;20.50;1.00;;;;;;8395884;28;20195;-78
2022/05/05 12:41:21;;;;;;;7.17;5.00;;;20.60;1.00;;;;;;8405402;28;20206;-79
2022/05/05 12:45:27;;;;;;;4.77;4.37;;;21.00;1.00;;;;;;8401129;28;20296;-78
2022/05/05 12:49:38;;;;;;;5.90;4.27;;;21.20;1.00;;;;;;8400134;28;20275;-78
2022/05/05 13:02:17;;;;;;;2.70;2.40;;;21.90;1.00;;;;;;8411008;28;20226;-78
2022/05/05 13:06:18;;;;;;;4.40;3.40;;;21.90;1.00;;;;;;8394147;28;20184;-79
2022/05/05 13:10:19;;;;;;;3.60;2.70;;;21.90;1.00;;;;;;8400523;28;20274;-78
2022/05/05 13:14:21;;;;;;;4.73;2.60;;;21.80;1.00;;;;;;8402595;28;20211;-78
2022/05/05 13:18:22;;;;;;;3.73;2.80;;;21.80;1.00;;;;;;8403837;28;20319;-78
2022/05/05 13:22:23;;;;;;;3.13;2.83;;;22.20;1.00;;;;;;8399534;28;20213;-79
2022/05/05 13:26:24;;;;;;;3.00;2.80;;;22.50;1.00;;;;;;8393674;28;20402;-78
2022/05/05 13:30:24;;;;;;;4.30;2.57;;;23.10;1.00;;;;;;8406462;28;20215;-78
2022/05/05 13:34:25;;;;;;;2.57;2.37;;;23.60;1.00;;;;;;8404301;28;20188;-78
2022/05/05 13:38:27;;;;;;;3.53;3.07;;;24.10;1.00;;;;;;8406469;28;20320;-80
2022/05/05 13:42:28;;;;;;;3.67;3.30;;;24.30;1.00;;;;;;8395028;28;20222;-78
2022/05/05 13:46:30;;;;;;;5.17;2.83;;;24.20;1.00;;;;;;8402815;28;20185;-78
2022/05/05 13:50:31;;;;;;;5.27;3.53;;;24.30;1.00;;;;;;8399732;28;20502;-78
2022/05/05 13:54:32;;;;;;;4.33;3.10;;;24.60;1.00;;;;;;8398156;28;20196;-80
2022/05/05 13:58:34;;;;;;;3.27;2.70;;;25.10;1.00;;;;;;8412174;28;20207;-79
2022/05/05 14:02:35;;;;;;;3.80;2.90;;;25.20;1.00;;;;;;8405181;28;20206;-80
2022/05/05 14:06:36;;;;;;;4.00;3.50;;;25.20;1.00;;;;;;8400781;28;20184;-80
2022/05/05 14:14:56;;;;;;;2.70;2.40;;;23.50;1.00;;;;;;8408983;28;20661;-79
2022/05/05 14:18:57;;;;;;;3.87;2.60;;;22.90;1.00;;;;;;8395007;28;20267;-80
2022/05/05 14:22:58;;;;;;;3.67;2.57;;;22.00;1.00;;;;;;8398046;28;20211;-80
2022/05/05 14:27:02;;;;;;;6.07;2.70;;;21.10;1.00;;;;;;8401073;28;20192;-79
2022/05/05 14:31:03;;;;;;;3.70;3.10;;;20.50;1.00;;;;;;8399794;28;20400;-79
2022/05/05 14:35:04;;;;;;;3.33;2.73;;;20.00;36.00;;;;;;8406148;28;20185;-80
2022/05/05 14:39:05;;;;;;;4.20;3.30;;;19.70;76.30;;;;;;8404449;28;20208;-80
2022/05/05 14:43:06;;;;;;;4.53;2.63;;;19.20;99.90;;;;;;8394552;28;20208;-80
2022/05/05 14:47:08;;;;;;;3.20;2.90;;;19.00;99.90;;;;;;8398040;28;20192;-79
2022/05/05 14:51:09;;;;;;;6.50;2.60;;;18.40;99.90;;;;;;8413951;28;20176;-78
2022/05/05 14:55:10;;;;;;;4.27;2.80;;;17.60;99.90;;;;;;8396968;28;20221;-76
2022/05/05 15:04:07;;;;;;;18.40;12.43;;;17.00;1.00;;;;;;8408580;28;20227;-79
2022/05/05 15:08:08;;;;;;;31.43;20.43;;;16.10;1.00;;;;;;8401895;28;20184;-79
2022/05/05 15:12:09;;;;;;;14.50;11.53;;;16.00;1.00;;;;;;8411042;28;20188;-78
2022/05/05 15:16:10;;;;;;;12.20;10.53;;;16.10;1.00;;;;;;8404438;28;20200;-77
2022/05/05 15:20:12;;;;;;;11.27;10.07;;;16.10;99.90;;;;;;8408939;28;20309;-79
2022/05/05 15:24:13;;;;;;;9.30;8.40;;;16.40;1.00;;;;;;8399966;28;20211;-79
2022/05/05 15:28:14;;;;;;;8.43;7.63;;;16.80;1.00;;;;;;8415298;28;20189;-80
2022/05/05 15:32:15;;;;;;;8.83;7.47;;;17.00;99.90;;;;;;8391868;28;20195;-78
2022/05/05 15:36:16;;;;;;;9.10;8.10;;;17.10;99.90;;;;;;8411259;28;20192;-80
2022/05/05 15:40:18;;;;;;;7.37;6.60;;;17.20;99.90;;;;;;8391552;28;20216;-79
2022/05/05 15:44:19;;;;;;;7.23;6.53;;;17.30;1.00;;;;;;8389149;28;20215;-80
2022/05/05 15:48:20;;;;;;;8.63;6.70;;;17.20;1.00;;;;;;8388882;28;20192;-80
2022/05/05 15:52:22;;;;;;;6.70;6.00;;;17.10;29.70;;;;;;8413982;28;20295;-80
2022/05/05 15:56:23;;;;;;;8.17;7.30;;;16.90;1.00;;;;;;8395414;28;20192;-79
2022/05/05 16:00:25;;;;;;;9.07;7.60;;;16.70;99.90;;;;;;8408254;28;20260;-80
2022/05/05 16:04:28;;;;;;;17.60;14.67;;;16.40;99.90;;;;;;8389681;28;20217;-79
2022/05/05 16:08:29;;;;;;;11.87;9.33;;;16.30;1.00;;;;;;8389891;28;20532;-79
2022/05/05 16:12:30;;;;;;;12.93;10.20;;;16.10;24.90;;;;;;8386432;28;20222;-78
2022/05/05 16:16:30;;;;;;;9.00;8.10;;;15.90;99.90;;;;;;8398749;28;20307;-79
2022/05/05 16:20:31;;;;;;;8.17;7.47;;;15.50;99.90;;;;;;8405164;28;20200;-79
2022/05/05 16:33:14;;;;;;;11.00;9.90;;;15.30;1.00;;;;;;8401837;28;20208;-76
2022/05/05 16:37:17;;;;;;;15.27;12.83;;;15.40;99.90;;;;;;8402725;28;20211;-78
2022/05/05 16:41:18;;;;;;;10.50;9.37;;;15.50;1.00;;;;;;8383758;28;20202;-76
2022/05/05 16:45:19;;;;;;;8.30;7.50;;;15.40;1.00;;;;;;8406467;28;20215;-77
2022/05/05 16:49:19;;;;;;;7.77;7.03;;;15.40;99.90;;;;;;8395789;28;20229;-76
2022/05/05 16:53:21;;;;;;;12.00;9.13;;;15.50;99.90;;;;;;8393921;28;20209;-77
2022/05/05 16:57:22;;;;;;;56.70;25.73;;;15.60;1.00;;;;;;8384544;28;20188;-77
2022/05/05 17:01:23;;;;;;;28.73;16.10;;;15.80;99.90;;;;;;8395258;28;20181;-78
2022/05/05 17:05:24;;;;;;;36.40;27.33;;;16.00;99.90;;;;;;8396536;28;20243;-77
2022/05/05 17:09:25;;;;;;;23.87;17.93;;;16.00;37.00;;;;;;8392354;28;20219;-77
2022/05/05 17:13:26;;;;;;;28.93;23.33;;;16.10;12.00;;;;;;8413472;28;20180;-77
2022/05/05 17:17:27;;;;;;;32.87;27.10;;;16.10;99.90;;;;;;8411653;28;20188;-77
2022/05/05 17:21:28;;;;;;;36.13;26.90;;;16.10;91.30;;;;;;8389632;28;20247;-76
2022/05/05 17:25:30;;;;;;;28.20;21.43;;;16.00;99.90;;;;;;8394178;28;20209;-78
2022/05/05 17:29:32;;;;;;;34.73;24.53;;;15.90;99.90;;;;;;8406309;28;20264;-77
2022/05/05 17:33:33;;;;;;;27.63;19.83;;;15.80;99.90;;;;;;8410040;28;20211;-77
2022/05/05 17:37:34;;;;;;;14.37;10.80;;;15.70;99.90;;;;;;8390927;28;20188;-77
2022/05/05 17:41:35;;;;;;;9.77;7.93;;;15.60;1.00;;;;;;8395666;28;20498;-77
2022/05/05 17:54:32;;;;;;;4.93;4.53;;;15.30;1.60;;;;;;8406914;28;20197;-77
2022/05/05 17:58:33;;;;;;;5.27;4.77;;;15.10;1.00;;;;;;8409213;28;20189;-76
2022/05/05 18:02:34;;;;;;;6.03;5.37;;;15.00;99.90;;;;;;8385230;28;20268;-76
2022/05/05 18:06:35;;;;;;;6.13;5.53;;;14.90;99.90;;;;;;8401578;28;20213;-76
2022/05/05 18:10:37;;;;;;;6.10;5.53;;;14.80;99.90;;;;;;8379101;28;20181;-76
2022/05/05 18:14:38;;;;;;;6.70;5.77;;;14.70;1.00;;;;;;8389116;28;20271;-76
2022/05/05 18:18:41;;;;;;;6.00;5.40;;;14.60;1.00;;;;;;8383702;28;20298;-76
2022/05/05 18:22:42;;;;;;;5.90;5.30;;;14.40;99.90;;;;;;8387089;28;20208;-77
2022/05/05 18:26:43;;;;;;;5.43;4.93;;;14.20;1.00;;;;;;8400723;28;20204;-77
2022/05/05 18:30:44;;;;;;;5.60;5.13;;;14.10;99.90;;;;;;8393521;28;20268;-83
2022/05/05 18:34:45;;;;;;;5.40;4.90;;;14.00;1.00;;;;;;8393807;28;20196;-84
2022/05/05 18:38:46;;;;;;;5.93;5.13;;;13.90;99.90;;;;;;8398071;28;20189;-84
2022/05/05 18:42:47;;;;;;;5.57;5.07;;;13.80;99.90;;;;;;8400176;28;20226;-82
2022/05/05 18:46:48;;;;;;;6.23;5.63;;;13.60;99.90;;;;;;8393335;28;20252;-84
2022/05/05 18:50:49;;;;;;;9.13;8.30;;;13.50;1.00;;;;;;8407212;28;20184;-84
2022/05/05 18:54:52;;;;;;;10.60;9.53;;;13.30;99.90;;;;;;8395854;28;20199;-84
2022/05/05 18:58:53;;;;;;;10.80;9.67;;;13.10;99.90;;;;;;8408273;28;20186;-85
2022/05/05 19:02:53;;;;;;;11.60;10.40;;;13.00;99.90;;;;;;8425465;28;20232;-83
2022/05/05 19:06:56;;;;;;;11.30;10.20;;;12.90;99.90;;;;;;8413208;28;20215;-83
2022/05/05 19:10:57;;;;;;;11.87;10.70;;;12.90;99.90;;;;;;8414053;28;20196;-83
2022/05/05 19:14:58;;;;;;;11.40;10.20;;;12.90;99.90;;;;;;8399886;28;20184;-82
2022/05/05 19:18:59;;;;;;;12.27;11.03;;;12.90;99.90;;;;;;8403979;28;20210;-83
2022/05/05 19:23:01;;;;;;;11.73;10.53;;;12.90;99.90;;;;;;8408778;28;20216;-84
2022/05/05 19:27:02;;;;;;;15.27;12.57;;;12.90;99.90;;;;;;8397841;28;20271;-83
2022/05/05 19:31:04;;;;;;;15.27;13.70;;;12.90;99.90;;;;;;8398452;28;20204;-84
2022/05/05 19:35:06;;;;;;;16.80;14.93;;;12.80;99.90;;;;;;8399290;28;20188;-84
2022/05/05 19:39:07;;;;;;;15.27;13.70;;;12.70;99.90;;;;;;8392173;28;20219;-83
2022/05/05 19:43:09;;;;;;;17.10;12.73;;;12.70;99.90;;;;;;8401706;28;20222;-85
2022/05/05 19:47:09;;;;;;;14.33;12.57;;;12.60;99.90;;;;;;8412971;28;20196;-83
2022/05/05 19:51:10;;;;;;;14.50;13.10;;;12.60;99.90;;;;;;8417355;28;20189;-84
2022/05/05 20:01:11;;;;;;;13.90;12.30;;;12.60;99.90;;;;;;8403562;28;20191;-84
2022/05/05 20:03:55;;;;;;;11.57;10.47;;;12.50;99.90;;;;;;8408633;28;20262;-85
2022/05/05 20:07:56;;;;;;;11.63;10.53;;;12.50;99.90;;;;;;8410836;28;20188;-84
2022/05/05 20:11:58;;;;;;;11.97;10.77;;;12.50;99.90;;;;;;8396179;28;20188;-86
2022/05/05 20:15:59;;;;;;;11.10;9.80;;;12.40;99.90;;;;;;8396287;28;20211;-84
2022/05/05 20:20:00;;;;;;;10.83;9.83;;;12.30;99.90;;;;;;8398876;28;20247;-84
2022/05/05 20:24:01;;;;;;;10.33;9.20;;;12.10;99.90;;;;;;8403422;28;20208;-84
2022/05/05 20:28:02;;;;;;;11.50;10.33;;;11.90;99.90;;;;;;8400092;28;20186;-84
2022/05/05 20:32:05;;;;;;;10.53;9.43;;;11.70;99.90;;;;;;8422578;28;20216;-83
2022/05/05 20:36:06;;;;;;;9.57;8.63;;;11.60;99.90;;;;;;8412421;28;20472;-84
2022/05/05 20:40:08;;;;;;;10.40;9.30;;;11.40;99.90;;;;;;8401376;28;20304;-83
2022/05/05 20:44:11;;;;;;;11.27;9.80;;;11.30;99.90;;;;;;8399855;28;20490;-83
2022/05/05 20:48:11;;;;;;;10.93;9.77;;;11.10;99.90;;;;;;8380838;28;20188;-83
2022/05/05 20:52:12;;;;;;;10.83;9.73;;;11.00;99.90;;;;;;8375030;28;20216;-83
2022/05/05 20:56:13;;;;;;;11.17;9.93;;;10.90;99.90;;;;;;8394970;28;20211;-84
2022/05/05 21:00:16;;;;;;;12.17;10.53;;;10.90;99.90;;;;;;8399539;28;20185;-83
2022/05/05 21:04:18;;;;;;;11.27;10.07;;;10.70;99.90;;;;;;8408618;28;20216;-82
2022/05/05 21:08:19;;;;;;;12.27;11.03;;;10.70;99.90;;;;;;8392215;28;20674;-83
2022/05/05 21:12:20;;;;;;;10.63;9.53;;;10.60;99.90;;;;;;8384866;28;20197;-83
2022/05/05 21:16:21;;;;;;;10.97;9.87;;;10.50;99.90;;;;;;8399786;28;20193;-83
2022/05/05 21:29:04;;;;;;;12.27;10.97;;;10.30;99.90;;;;;;8403081;28;20213;-83
2022/05/05 21:33:06;;;;;;;12.80;11.13;;;10.20;99.90;;;;;;8398745;28;20245;-83
2022/05/05 21:37:07;;;;;;;13.27;10.60;;;10.10;99.90;;;;;;8400137;28;20185;-83
2022/05/05 21:41:08;;;;;;;11.10;9.70;;;10.00;99.90;;;;;;8406445;28;20214;-83
2022/05/05 21:45:11;;;;;;;10.73;9.60;;;9.90;99.90;;;;;;8398970;28;20246;-83
2022/05/05 21:49:12;;;;;;;12.53;9.77;;;9.80;99.90;;;;;;8411907;28;20199;-82
2022/05/05 21:53:13;;;;;;;10.13;9.13;;;9.70;99.90;;;;;;8426725;28;20173;-83
2022/05/05 21:57:14;;;;;;;11.10;9.10;;;9.70;99.90;;;;;;8419330;28;20204;-84
2022/05/05 22:01:15;;;;;;;9.80;8.80;;;9.60;99.90;;;;;;8395562;28;20210;-83
2022/05/05 22:05:15;;;;;;;10.33;9.03;;;9.50;99.90;;;;;;8387234;28;20209;-83
2022/05/05 22:09:16;;;;;;;9.33;8.37;;;9.40;99.90;;;;;;8401849;28;20198;-83
2022/05/05 22:13:22;;;;;;;11.33;9.40;;;9.30;99.90;;;;;;8405122;28;20198;-84
2022/05/05 22:17:22;;;;;;;12.47;9.43;;;9.30;99.90;;;;;;8399555;28;20261;-83
2022/05/05 22:21:23;;;;;;;10.50;9.50;;;9.20;99.90;;;;;;8401429;28;20205;-83
2022/05/05 22:25:25;;;;;;;10.57;9.47;;;9.20;99.90;;;;;;8406935;28;20208;-83
2022/05/05 22:29:26;;;;;;;10.10;9.03;;;9.20;99.90;;;;;;8391182;28;20184;-84
2022/05/05 22:33:27;;;;;;;9.90;8.90;;;9.10;99.90;;;;;;8421563;28;20222;-83
2022/05/05 22:37:28;;;;;;;9.50;8.60;;;9.10;99.90;;;;;;8414296;28;20252;-83